ADDS METAR Data INFO
IDs: Format: Raw Decoded Include TAF

Data at: 1810 UTC 14 Aug 2018

PPIZ 141756Z AUTO 01003KT 10SM OVC010 02/00 A3005 RMK AO2 SLP180 T00170000 10022 20011 53001 FZRANO TSNO
PPIZ 141656Z AUTO 03007KT 10SM OVC010 02/00 A3005 RMK AO2 SLP179 T00170000 FZRANO TSNO
PPIZ 141556Z AUTO 04008KT 10SM OVC010 02/00 A3005 RMK AO2 SLP179 T00170000 FZRANO TSNO
PPIZ 141554Z AUTO 04008KT 10SM OVC010 02/00 A3005 RMK AO2 FZRANO TSNO
PPIZ 141513Z AUTO 03010KT 10SM OVC008 01/00 A3004 RMK AO2 FZRANO TSNO
PPIZ 141456Z AUTO 03008KT 10SM OVC010 01/00 A3004 RMK AO2 SLP177 T00110000 50001 FZRANO TSNO
PPIZ 141356Z AUTO 03009KT 10SM OVC010 01/00 A3004 RMK AO2 SLP177 T00110000 FZRANO TSNO
PPIZ 141339Z AUTO 04009KT 10SM OVC010 01/00 A3004 RMK AO2 FZRANO TSNO
PPIZ 141256Z AUTO 03013KT 10SM OVC008 02/00 A3004 RMK AO2 SLP176 T00170000 FZRANO TSNO
PPIZ 141156Z AUTO 02012KT 10SM OVC008 02/01 A3004 RMK AO2 SLP176 60000 T00170006 10033 20017 51009 FZRANO TSNO
PPIZ 141056Z AUTO 03011KT 10SM OVC008 02/01 A3003 RMK AO2 SLP174 T00170006 FZRANO TSNO
PPIZ 141022Z AUTO 02015KT 10SM OVC008 02/01 A3003 RMK AO2 FZRANO TSNO
PPIZ 140956Z AUTO 03015KT 10SM OVC010 02/01 A3003 RMK AO2 CIG 008V011 SLP172 T00220006 FZRANO TSNO
PPIZ 140856Z AUTO 02013KT 10SM OVC012 03/02 A3001 RMK AO2 SLP167 60000 T00280017 400560011 51009 TSNO
PPIZ 140834Z AUTO 02013KT 10SM OVC014 03/02 A3001 RMK AO2 TSNO
PPIZ 140756Z AUTO 02014KT 10SM OVC017 03/02 A3000 RMK AO2 RAE32 SLP165 P0000 T00330017 TSNO
PPIZ 140656Z AUTO 02017KT 3SM -RA BR SCT010 OVC015 03/02 A2999 RMK AO2 RAB03 SLP160 P0000 T00280022 TSNO
PPIZ 140612Z AUTO 02019G25KT 10SM -RA BKN012 BKN020 OVC041 03/02 A2998 RMK AO2 RAB03 P0000 TSNO
PPIZ 140556Z AUTO 02015KT 10SM FEW012 BKN017 OVC041 03/02 A2998 RMK AO2 RAB25E43 SLP158 P0000 60000 T00330017 10050 20033 53010 TSNO
PPIZ 140511Z AUTO 02019KT 10SM SCT013 BKN019 OVC037 03/01 A2997 RMK AO2 TSNO
PPIZ 140456Z AUTO 02016G22KT 10SM BKN013 OVC022 03/01 A2997 RMK AO2 PK WND 01027/0403 SLP154 T00330011 TSNO
PPIZ 140449Z AUTO 02017G23KT 10SM OVC013 03/01 A2997 RMK AO2 PK WND 01027/0403 TSNO
PPIZ 140356Z AUTO 01022G28KT 10SM BKN018 BKN023 OVC039 04/01 A2996 RMK AO2 PK WND 02028/0356 SLP150 T00390006 TSNO
PPIZ 140256Z AUTO 01022G25KT 10SM OVC016 04/01 A2995 RMK AO2 PK WND 02026/0204 SLP147 60000 T00440006 53007 TSNO
PPIZ 140215Z AUTO 02021KT 9SM BKN014 OVC038 04/02 A2995 RMK AO2 PK WND 02026/0204 TSNO
PPIZ 140156Z AUTO 01018G25KT 10SM OVC016 04/01 A2995 RMK AO2 PK WND 36027/0131 SLP145 T00440011 TSNO
PPIZ 140056Z AUTO 01021G28KT 10SM BKN020 OVC028 04/00 A2994 RMK AO2 PK WND 01028/0051 RAE24 SLP142 P0000 T00440000 TSNO
PPIZ 140003Z AUTO 03021G26KT 10SM BKN016 BKN022 OVC037 04/02 A2993 RMK AO2 PK WND 02026/2358 RAE02 P0000 TSNO
PPIZ 132356Z AUTO 01018G27KT 10SM -RA BKN013 BKN019 04/02 A2993 RMK AO2 PK WND 01027/2350 RAE20B36 SLP140 P0000 60000 T00390022 10056 20028 50006 TSNO
PPIZ 132256Z AUTO 01023G28KT 9SM -RA BKN017 BKN025 OVC035 04/01 A2992 RMK AO2 PK WND 01028/2256 RAB29 SLP136 P0000 T00440011 TSNO
PPIZ 132156Z AUTO 03019G24KT 10SM SCT016 BKN027 OVC034 04/01 A2991 RMK AO2 PK WND 01028/2124 SLP134 T00440011 TSNO
PPIZ 132056Z AUTO 02020G24KT 10SM SCT012 OVC020 04/01 A2990 RMK AO2 RAB29E51 SLP129 P0000 60000 T00390006 53012 TSNO
PPIZ 132034Z AUTO 02018G23KT 7SM -RA OVC010 03/02 A2989 RMK AO2 RAB29 CIG 008V013 P0000 TSNO
PPIZ 131956Z AUTO 01017KT 10SM OVC008 03/02 A2989 RMK AO2 UPB1859E16 SLP124 P0000 T00330017 TSNO
PPIZ 131909Z AUTO 01017KT 3SM UP BR OVC006 03/02 A2988 RMK AO2 UPB1859 CIG 004V008 P0000 TSNO
PPIZ 131856Z AUTO 02017KT 3SM BR OVC004 03/02 A2988 RMK AO2 SLP121 T00280022 TSNO
PPIZ 131845Z AUTO 02019KT 4SM BR OVC004 03/02 A2987 RMK AO2 TSNO
PPIZ 131756Z AUTO 02015KT 10SM OVC008 03/02 A2987 RMK AO2 CIG 006V011 SLP117 60000 T00330017 10033 20011 52006 TSNO
PPIZ 131656Z AUTO 02016KT 10SM OVC008 03/02 A2986 RMK AO2 UPE07RAB07E18 SLP115 P0000 T00280017 TSNO
PPIZ 131556Z AUTO 03012KT 8SM UP BKN008 OVC011 02/01 A2985 RMK AO2 RAB20E29UPB29 CIG 005V010 SLP113 P0000 T00170011 FZRANO TSNO
PPIZ 131530Z AUTO 04012KT 10SM UP FEW008 BKN013 OVC025 02/01 A2985 RMK AO2 RAB20E29UPB29 P0000 FZRANO TSNO
PPIZ 131456Z AUTO 03011KT 10SM BKN022 OVC028 02/01 A2985 RMK AO2 SLP111 60000 T00170006 53008 FZRANO TSNO
PPIZ 131415Z AUTO 03011KT 10SM SCT007 OVC015 01/01 A2984 RMK AO2 FZRANO TSNO
PPIZ 131311Z AUTO 02015KT 10SM OVC016 02/01 A2983 RMK AO2 FZRANO TSNO
PPIZ 131256Z AUTO 02015KT 10SM OVC014 02/01 A2983 RMK AO2 SLP104 T00170006 FZRANO TSNO
PPIZ 131237Z AUTO 02016KT 10SM OVC010 02/01 A2983 RMK AO2 CIG 009V013 FZRANO TSNO
PPIZ 131156Z AUTO 02015G21KT 10SM OVC008 02/01 A2982 RMK AO2 SLP103 T00220011 10044 20022 53010 FZRANO TSNO
PPIZ 131056Z AUTO 03016KT 10SM OVC006 02/01 A2981 RMK AO2 SLP099 T00220011 FZRANO TSNO
PPIZ 131042Z AUTO 02019G24KT 10SM OVC006 02/01 A2981 RMK AO2 FZRANO TSNO
PPIZ 130956Z AUTO 02019G25KT 10SM OVC004 02/02 A2980 RMK AO2 SLP095 T00220017 FZRANO TSNO
PPIZ 130932Z AUTO 02019G24KT 10SM OVC004 02/02 A2980 RMK AO2 FZRANO TSNO
PPIZ 130856Z AUTO 02018G24KT 3SM BR OVC002 02/02 A2979 RMK AO2 SLP093 T00220017 400940022 51007 FZRANO TSNO
PPIZ 130854Z AUTO 01019G24KT 2 1/2SM BR OVC002 02/02 A2979 RMK AO2 VIS 1 1/2V4 400940022 FZRANO TSNO
PPIZ 130756Z AUTO 03019KT 10SM OVC004 02/01 A2979 RMK AO2 SLP091 T00220011 FZRANO TSNO
PPIZ 130656Z AUTO 02020KT 10SM OVC004 03/02 A2977 RMK AO2 SLP086 T00330022 TSNO
PPIZ 130620Z AUTO 01018KT 10SM SCT006 03/02 A2977 RMK AO2 TSNO